createdAt,value
2022-08-30T00:02:25.218Z,16.91
2022-08-30T00:04:54.592Z,16.76
2022-08-30T00:07:23.470Z,16.71
2022-08-30T00:09:51.355Z,17.26
2022-08-30T00:12:21.375Z,17.19
2022-08-30T00:14:49.364Z,17.47
2022-08-30T00:17:17.200Z,17.22
2022-08-30T00:19:45.800Z,17.10
2022-08-30T00:22:14.333Z,16.90
2022-08-30T00:24:42.224Z,16.75
2022-08-30T00:27:10.391Z,16.77
2022-08-30T00:29:38.260Z,16.69
2022-08-30T00:32:06.225Z,16.86
2022-08-30T00:34:34.923Z,16.61
2022-08-30T00:37:03.097Z,16.65
2022-08-30T00:39:30.889Z,16.84
2022-08-30T00:41:59.032Z,16.84
2022-08-30T00:44:26.977Z,16.73
2022-08-30T00:46:54.734Z,16.45
2022-08-30T00:49:23.221Z,16.69
2022-08-30T00:51:51.310Z,17.49
2022-08-30T00:54:22.324Z,16.85
2022-08-30T00:56:55.859Z,16.91
2022-08-30T00:59:24.824Z,16.90
2022-08-30T01:01:52.929Z,16.59
2022-08-30T01:04:24.634Z,16.27
2022-08-30T01:06:53.414Z,16.19
2022-08-30T01:09:22.126Z,16.11
2022-08-30T01:11:50.161Z,16.21
2022-08-30T01:14:18.386Z,16.38
2022-08-30T01:16:46.656Z,16.22
2022-08-30T01:19:36.047Z,16.17
2022-08-30T01:22:17.822Z,16.27
2022-08-30T01:24:48.014Z,16.20
2022-08-30T01:27:18.394Z,16.22
2022-08-30T01:29:46.841Z,16.38
2022-08-30T01:32:21.309Z,16.43
2022-08-30T01:34:50.692Z,16.48
2022-08-30T01:37:24.860Z,16.44
2022-08-30T01:39:53.271Z,16.75
2022-08-30T01:42:21.554Z,16.46
2022-08-30T01:44:49.886Z,16.11
2022-08-30T01:47:19.681Z,15.88
2022-08-30T01:49:47.985Z,15.76
2022-08-30T01:52:17.780Z,15.78
2022-08-30T01:54:47.191Z,15.88
2022-08-30T01:57:18.602Z,15.81
2022-08-30T01:59:48.126Z,16.09
2022-08-30T02:02:21.312Z,16.44
2022-08-30T02:04:52.052Z,16.55
2022-08-30T02:07:23.835Z,16.54
2022-08-30T02:09:53.608Z,16.45
2022-08-30T02:12:21.525Z,16.13
2022-08-30T02:14:49.479Z,16.42
2022-08-30T02:17:19.722Z,16.45
2022-08-30T02:19:50.288Z,16.54
2022-08-30T02:22:18.975Z,16.53
2022-08-30T02:24:46.972Z,16.09
2022-08-30T02:27:14.946Z,15.83
2022-08-30T02:29:43.254Z,15.74
2022-08-30T02:32:11.065Z,16.31
2022-08-30T02:34:38.870Z,16.33
2022-08-30T02:37:07.150Z,16.15
2022-08-30T02:39:35.065Z,16.59
2022-08-30T02:42:03.596Z,16.53
2022-08-30T02:44:31.807Z,16.30
2022-08-30T02:46:59.626Z,16.24
2022-08-30T02:49:33.522Z,16.31
2022-08-30T02:52:05.218Z,16.00
2022-08-30T02:54:33.586Z,15.78
2022-08-30T02:57:05.330Z,15.85
2022-08-30T02:59:34.280Z,15.90
2022-08-30T03:02:02.084Z,15.91
2022-08-30T03:04:30.249Z,16.19
2022-08-30T03:06:59.324Z,15.93
2022-08-30T03:09:27.222Z,16.14
2022-08-30T03:11:55.017Z,16.28
2022-08-30T03:14:23.395Z,16.36
2022-08-30T03:16:51.805Z,16.06
2022-08-30T03:19:20.035Z,15.99
2022-08-30T03:21:48.395Z,15.92
2022-08-30T03:24:16.179Z,15.98
2022-08-30T03:26:46.436Z,15.88
2022-08-30T03:29:15.143Z,15.91
2022-08-30T03:31:52.556Z,16.38
2022-08-30T03:34:22.144Z,16.34
2022-08-30T03:36:53.017Z,16.26
2022-08-30T03:39:22.984Z,16.68
2022-08-30T03:41:52.050Z,16.93
2022-08-30T03:44:20.814Z,17.09
2022-08-30T03:46:50.370Z,17.16
2022-08-30T03:49:19.716Z,17.31
2022-08-30T03:51:48.673Z,17.54
2022-08-30T03:54:17.459Z,17.66
2022-08-30T03:56:45.266Z,17.73
2022-08-30T03:59:13.215Z,17.79
2022-08-30T04:01:42.380Z,17.89
2022-08-30T04:04:10.611Z,17.88
2022-08-30T04:06:38.576Z,18.06
2022-08-30T04:09:06.815Z,18.13
2022-08-30T04:11:35.025Z,18.26
2022-08-30T04:14:02.730Z,18.39
2022-08-30T04:16:30.554Z,18.49
2022-08-30T04:18:58.735Z,18.55
2022-08-30T04:21:27.320Z,18.68
2022-08-30T04:23:55.139Z,18.81
2022-08-30T04:26:23.485Z,18.71
2022-08-30T04:28:57.863Z,19.02
2022-08-30T04:31:27.706Z,19.05
2022-08-30T04:36:42.142Z,19.43
2022-08-30T04:39:17.777Z,19.52
2022-08-30T04:41:48.787Z,19.72
2022-08-30T04:44:19.486Z,19.58
2022-08-30T04:46:48.528Z,19.95
2022-08-30T04:49:16.328Z,19.92
2022-08-30T04:51:44.143Z,19.81
2022-08-30T04:54:12.628Z,19.82
2022-08-30T04:56:40.641Z,20.00
2022-08-30T04:59:08.463Z,19.89
2022-08-30T05:01:44.694Z,20.09
2022-08-30T05:04:14.039Z,19.83
2022-08-30T05:06:42.531Z,19.90
2022-08-30T05:09:10.454Z,20.10
2022-08-30T05:11:39.187Z,20.43
2022-08-30T05:14:07.534Z,20.90
2022-08-30T05:16:35.894Z,20.67
2022-08-30T05:19:04.044Z,21.26
2022-08-30T05:21:32.274Z,20.88
2022-08-30T05:24:01.331Z,21.09
2022-08-30T05:26:32.721Z,21.06
2022-08-30T05:29:01.462Z,21.96
2022-08-30T05:31:32.764Z,22.18
2022-08-30T05:34:01.629Z,22.13
2022-08-30T05:36:32.556Z,21.93
2022-08-30T05:39:01.338Z,22.02
2022-08-30T05:41:29.579Z,23.05
2022-08-30T05:46:46.588Z,23.33
2022-08-30T05:49:14.602Z,23.01
2022-08-30T05:51:43.215Z,23.20
2022-08-30T05:54:13.644Z,23.73
2022-08-30T05:56:43.040Z,23.91
2022-08-30T05:59:12.868Z,24.15
2022-08-30T06:01:46.920Z,23.68
2022-08-30T06:04:15.778Z,23.33
2022-08-30T06:06:44.808Z,23.46
2022-08-30T06:09:14.174Z,23.47
2022-08-30T06:11:43.233Z,23.83
2022-08-30T06:14:11.717Z,24.72
2022-08-30T06:16:41.237Z,24.95
2022-08-30T06:19:11.288Z,24.66
2022-08-30T06:21:40.789Z,25.41
2022-08-30T06:24:11.496Z,26.19
2022-08-30T06:26:45.443Z,25.57
2022-08-30T06:29:16.275Z,25.39
2022-08-30T06:31:44.812Z,24.65
2022-08-30T06:34:13.032Z,24.32
2022-08-30T06:36:40.891Z,26.10
2022-08-30T06:39:11.729Z,27.51
2022-08-30T06:41:41.567Z,25.51
2022-08-30T06:44:12.422Z,25.77
2022-08-30T06:46:42.767Z,27.01
2022-08-30T06:49:11.099Z,27.63
2022-08-30T06:51:40.238Z,26.61
2022-08-30T06:54:11.958Z,26.34
2022-08-30T06:56:55.209Z,26.86
2022-08-30T06:59:27.306Z,28.46
2022-08-30T07:01:56.763Z,27.87
2022-08-30T07:04:25.590Z,28.89
2022-08-30T07:06:53.591Z,28.25
2022-08-30T07:09:23.044Z,27.69
2022-08-30T07:11:52.268Z,28.28
2022-08-30T07:14:21.138Z,28.04
2022-08-30T07:16:51.170Z,28.81
2022-08-30T07:19:21.522Z,28.54
2022-08-30T07:21:52.277Z,28.54
2022-08-30T07:24:21.124Z,28.94
2022-08-30T07:26:52.393Z,27.67
2022-08-30T07:29:21.604Z,26.85
2022-08-30T07:31:53.100Z,28.22
2022-08-30T07:34:22.404Z,28.11
2022-08-30T07:36:52.680Z,28.71
2022-08-30T07:39:20.564Z,27.91
2022-08-30T07:41:49.119Z,25.82
2022-08-30T07:44:18.069Z,28.63
2022-08-30T07:46:46.204Z,29.40
2022-08-30T07:49:14.246Z,27.78
2022-08-30T07:51:42.867Z,28.80
2022-08-30T07:54:10.781Z,28.93
2022-08-30T07:56:38.738Z,28.69
2022-08-30T07:59:06.997Z,29.07
2022-08-30T08:01:34.998Z,28.78
2022-08-30T08:04:03.623Z,31.27
2022-08-30T08:06:34.927Z,30.15
2022-08-30T08:09:03.644Z,29.16
2022-08-30T08:11:33.928Z,29.77
2022-08-30T08:14:03.434Z,30.73
2022-08-30T08:16:35.090Z,29.45
2022-08-30T08:19:04.912Z,28.29
2022-08-30T08:21:33.144Z,30.51
2022-08-30T08:24:01.004Z,29.65
2022-08-30T08:26:28.967Z,29.88
2022-08-30T08:28:57.928Z,30.69
2022-08-30T08:31:33.397Z,29.88
2022-08-30T08:36:54.392Z,29.86
2022-08-30T08:39:22.568Z,29.51
2022-08-30T08:42:27.628Z,29.06
2022-08-30T08:45:11.516Z,29.61
2022-08-30T08:47:45.376Z,29.06
2022-08-30T08:50:20.853Z,30.42
2022-08-30T08:53:36.055Z,30.54
2022-08-30T08:56:15.907Z,30.22
2022-08-30T08:58:47.441Z,30.20
2022-08-30T09:01:19.528Z,29.67
2022-08-30T09:03:48.213Z,29.45
2022-08-30T09:06:34.412Z,29.73
2022-08-30T09:09:02.196Z,29.77
2022-08-30T09:11:34.364Z,30.19
2022-08-30T09:14:02.782Z,31.50
2022-08-30T09:16:54.983Z,30.42
2022-08-30T09:19:56.917Z,31.18
2022-08-30T09:22:54.819Z,30.29
2022-08-30T09:25:30.710Z,30.13
2022-08-30T09:28:23.058Z,30.41
2022-08-30T09:31:01.685Z,31.65
2022-08-30T09:33:30.400Z,31.72
2022-08-30T09:36:14.082Z,29.72
2022-08-30T09:38:42.638Z,30.42
2022-08-30T09:41:34.759Z,31.34
2022-08-30T09:44:14.577Z,31.32
2022-08-30T09:46:51.957Z,29.54
2022-08-30T09:49:35.838Z,30.40
2022-08-30T09:52:22.248Z,30.43
2022-08-30T09:55:04.130Z,30.74
2022-08-30T09:57:48.280Z,30.55
2022-08-30T10:00:22.619Z,30.63
2022-08-30T10:03:06.147Z,30.48
2022-08-30T10:06:01.720Z,30.40
2022-08-30T10:08:49.875Z,30.64
2022-08-30T10:11:40.117Z,32.23
2022-08-30T10:14:16.099Z,33.18
2022-08-30T10:17:12.364Z,31.79
2022-08-30T10:20:08.627Z,29.54
2022-08-30T10:22:59.658Z,29.39
2022-08-30T10:25:39.421Z,30.28
2022-08-30T10:28:17.818Z,31.34
2022-08-30T10:31:03.106Z,31.78
2022-08-30T10:33:38.257Z,32.16
2022-08-30T10:36:11.648Z,31.41
2022-08-30T10:38:50.597Z,32.01
2022-08-30T10:41:40.438Z,30.62
2022-08-30T10:44:17.598Z,31.53
2022-08-30T10:46:57.723Z,31.64
2022-08-30T10:49:29.035Z,30.72
2022-08-30T10:52:14.865Z,29.70
2022-08-30T10:55:07.229Z,30.88
2022-08-30T10:57:35.480Z,31.30
2022-08-30T11:00:11.730Z,29.85
2022-08-30T11:02:57.338Z,32.73
2022-08-30T11:08:41.922Z,30.66
2022-08-30T11:11:17.312Z,30.78
2022-08-30T11:13:47.059Z,30.40
2022-08-30T11:16:19.497Z,31.11
2022-08-30T11:18:57.403Z,30.93
2022-08-30T11:21:34.118Z,32.16
2022-08-30T11:24:07.797Z,32.35
2022-08-30T11:26:51.076Z,31.71
2022-08-30T11:29:44.918Z,30.54
2022-08-30T11:32:12.813Z,31.70
2022-08-30T11:34:47.220Z,32.03
2022-08-30T11:40:26.619Z,30.85
2022-08-30T11:42:56.287Z,30.87
2022-08-30T11:45:25.435Z,30.83
2022-08-30T11:47:56.218Z,31.58
2022-08-30T11:51:06.559Z,30.69
2022-08-30T11:53:50.239Z,31.07
2022-08-30T11:57:02.400Z,30.12
2022-08-30T12:00:03.199Z,31.18
2022-08-30T12:02:51.202Z,31.55
2022-08-30T12:05:54.139Z,30.53
2022-08-30T12:08:27.892Z,31.81
2022-08-30T12:11:20.068Z,31.41
2022-08-30T12:13:56.354Z,31.65
2022-08-30T12:16:37.354Z,31.47
2022-08-30T12:19:21.776Z,31.89
2022-08-30T12:22:02.138Z,32.01
2022-08-30T12:24:36.999Z,32.33
2022-08-30T12:27:25.279Z,31.97
2022-08-30T12:30:02.322Z,32.47
2022-08-30T12:32:33.657Z,32.63
2022-08-30T12:35:04.383Z,32.90
2022-08-30T12:37:36.677Z,32.86
2022-08-30T12:40:08.370Z,33.34
2022-08-30T12:42:41.616Z,32.69
2022-08-30T12:45:16.219Z,33.37
2022-08-30T12:48:07.058Z,33.63
2022-08-30T12:53:39.741Z,34.35
2022-08-30T12:56:10.959Z,34.41
2022-08-30T12:58:52.035Z,34.12
2022-08-30T13:01:36.201Z,34.64
2022-08-30T13:04:14.757Z,35.30
2022-08-30T13:07:01.510Z,35.00
2022-08-30T13:09:47.929Z,34.90
2022-08-30T13:12:25.905Z,33.54
2022-08-30T13:15:20.364Z,34.29
2022-08-30T13:17:48.537Z,34.97
2022-08-30T13:20:16.988Z,35.35
2022-08-30T13:23:03.249Z,35.92
2022-08-30T13:25:33.076Z,34.74
2022-08-30T13:28:02.867Z,32.59
2022-08-30T13:30:32.285Z,33.35
2022-08-30T13:33:03.418Z,34.26
2022-08-30T13:35:32.858Z,34.89
2022-08-30T13:38:03.015Z,35.82
2022-08-30T13:40:31.396Z,35.72
2022-08-30T13:42:59.618Z,35.82
2022-08-30T13:45:43.424Z,35.77
2022-08-30T13:48:14.583Z,35.78
2022-08-30T13:50:45.479Z,35.52
2022-08-30T13:53:14.265Z,35.14
2022-08-30T13:55:43.063Z,35.49
2022-08-30T13:58:13.368Z,35.13
2022-08-30T14:00:42.316Z,35.72
2022-08-30T14:03:16.533Z,35.85
2022-08-30T14:05:50.535Z,35.88
2022-08-30T14:08:45.335Z,35.46
2022-08-30T14:11:18.735Z,34.94
2022-08-30T14:16:39.736Z,35.15
2022-08-30T14:19:12.579Z,34.86
2022-08-30T14:21:41.246Z,32.92
2022-08-30T14:24:12.066Z,31.80
2022-08-30T14:26:51.689Z,31.33
2022-08-30T14:29:26.385Z,30.95
2022-08-30T14:31:58.567Z,29.39
2022-08-30T14:34:28.823Z,29.31
2022-08-30T14:36:56.948Z,27.78
2022-08-30T14:39:26.380Z,27.74
2022-08-30T14:41:55.768Z,27.02
2022-08-30T14:44:25.721Z,28.59
2022-08-30T14:46:54.819Z,29.51
2022-08-30T14:49:25.507Z,30.54
2022-08-30T14:51:55.119Z,31.21
2022-08-30T14:54:26.418Z,31.53
2022-08-30T14:56:55.575Z,31.00
2022-08-30T14:59:25.176Z,29.67
2022-08-30T15:01:53.958Z,28.50
2022-08-30T15:04:22.802Z,27.56
2022-08-30T15:06:51.453Z,27.39
2022-08-30T15:09:24.619Z,27.25
2022-08-30T15:11:56.778Z,26.64
2022-08-30T15:14:28.102Z,26.36
2022-08-30T15:16:58.679Z,25.94
2022-08-30T15:19:27.180Z,26.13
2022-08-30T15:21:58.485Z,26.91
2022-08-30T15:24:29.762Z,26.50
2022-08-30T15:27:00.459Z,27.16
2022-08-30T15:29:31.735Z,27.49
2022-08-30T15:32:01.960Z,27.15
2022-08-30T15:34:31.968Z,26.62
2022-08-30T15:37:01.037Z,26.19
2022-08-30T15:39:29.647Z,25.91
2022-08-30T15:42:01.256Z,25.77
2022-08-30T15:44:34.477Z,25.52
2022-08-30T15:47:03.597Z,25.24
2022-08-30T15:49:31.767Z,25.42
2022-08-30T15:52:05.277Z,25.52
2022-08-30T15:54:36.461Z,25.52
2022-08-30T15:57:05.907Z,25.08
2022-08-30T15:59:34.108Z,25.42
2022-08-30T16:02:02.731Z,25.63
2022-08-30T16:04:31.900Z,26.21
2022-08-30T16:07:00.139Z,26.00
2022-08-30T16:09:29.935Z,26.04
2022-08-30T16:12:02.901Z,25.91
2022-08-30T16:14:33.318Z,25.86
2022-08-30T16:17:02.439Z,26.48
2022-08-30T16:19:33.439Z,26.25
2022-08-30T16:22:02.261Z,26.48
2022-08-30T16:24:30.454Z,26.00
2022-08-30T16:26:58.657Z,26.66
2022-08-30T16:29:27.140Z,26.79
2022-08-30T16:31:57.792Z,26.76
2022-08-30T16:34:26.559Z,26.25
2022-08-30T16:36:55.133Z,26.13
2022-08-30T16:39:23.340Z,26.41
2022-08-30T16:41:52.631Z,26.36
2022-08-30T16:44:20.743Z,25.90
2022-08-30T16:46:55.298Z,25.61
2022-08-30T16:49:25.548Z,25.88
2022-08-30T16:51:54.312Z,25.98
2022-08-30T16:54:25.080Z,25.86
2022-08-30T16:56:53.556Z,25.89
2022-08-30T16:59:21.843Z,25.93
2022-08-30T17:01:50.087Z,25.63
2022-08-30T17:07:06.754Z,25.30
2022-08-30T17:09:42.236Z,25.22
2022-08-30T17:12:10.293Z,25.20
2022-08-30T17:14:38.375Z,25.32
2022-08-30T17:17:07.466Z,25.13
2022-08-30T17:19:40.966Z,24.89
2022-08-30T17:22:10.738Z,24.89
2022-08-30T17:24:40.258Z,24.91
2022-08-30T17:27:08.550Z,24.79
2022-08-30T17:29:37.106Z,24.47
2022-08-30T17:32:06.868Z,24.43
2022-08-30T17:34:34.962Z,24.22
2022-08-30T17:37:03.642Z,24.45
2022-08-30T17:39:31.933Z,24.56
2022-08-30T17:42:00.844Z,24.40
2022-08-30T17:44:31.932Z,24.18
2022-08-30T17:47:00.495Z,23.89
2022-08-30T17:49:31.019Z,23.94
2022-08-30T17:54:45.948Z,23.95
2022-08-30T17:57:13.936Z,23.89
2022-08-30T17:59:43.547Z,22.98
2022-08-30T18:02:13.718Z,22.28
2022-08-30T18:04:42.638Z,22.31
2022-08-30T18:07:12.915Z,23.07
2022-08-30T18:09:41.726Z,23.16
2022-08-30T18:12:12.348Z,23.42
2022-08-30T18:14:42.239Z,23.05
2022-08-30T18:17:10.706Z,22.63
2022-08-30T18:19:45.851Z,22.51
2022-08-30T18:22:16.660Z,22.71
2022-08-30T18:24:45.967Z,23.15
2022-08-30T18:27:15.858Z,22.92
2022-08-30T18:29:43.971Z,22.77
2022-08-30T18:32:12.875Z,22.75
2022-08-30T18:34:43.126Z,22.29
2022-08-30T18:37:12.418Z,22.43
2022-08-30T18:39:41.971Z,21.84
2022-08-30T18:42:10.608Z,21.86
2022-08-30T18:44:40.198Z,21.97
2022-08-30T18:47:12.048Z,21.39
2022-08-30T18:49:40.280Z,21.65
2022-08-30T18:52:10.199Z,21.82
2022-08-30T18:54:49.748Z,21.58
2022-08-30T18:57:22.075Z,21.67
2022-08-30T18:59:51.228Z,21.74
2022-08-30T19:02:19.654Z,21.95
2022-08-30T19:04:49.353Z,21.85
2022-08-30T19:07:19.849Z,21.89
2022-08-30T19:09:49.239Z,22.02
2022-08-30T19:12:19.758Z,21.88
2022-08-30T19:14:49.199Z,21.94
2022-08-30T19:17:17.459Z,21.77
2022-08-30T19:19:49.340Z,21.65
2022-08-30T19:22:22.610Z,21.65
2022-08-30T19:24:54.986Z,21.81
2022-08-30T19:30:21.574Z,21.58
2022-08-30T19:32:52.219Z,21.33
2022-08-30T19:35:21.676Z,21.53
2022-08-30T19:37:49.921Z,21.22
2022-08-30T19:40:20.214Z,21.16
2022-08-30T19:42:52.107Z,20.27
2022-08-30T19:45:21.974Z,20.70
2022-08-30T19:47:53.556Z,20.32
2022-08-30T19:50:22.529Z,20.18
2022-08-30T19:55:40.658Z,20.01
2022-08-30T19:58:10.289Z,19.99
2022-08-30T20:00:39.246Z,19.83
2022-08-30T20:03:14.149Z,20.11
2022-08-30T20:05:44.097Z,20.52
2022-08-30T20:08:12.314Z,19.53
2022-08-30T20:10:44.074Z,19.86
2022-08-30T20:13:12.165Z,19.37
2022-08-30T20:15:40.815Z,19.77
2022-08-30T20:18:14.203Z,20.08
2022-08-30T20:20:49.380Z,19.54
2022-08-30T20:23:22.631Z,19.32
2022-08-30T20:24:23.934Z,25.64
2022-08-30T20:25:53.647Z,19.11
2022-08-30T20:28:22.628Z,19.37
2022-08-30T20:30:50.764Z,19.67
2022-08-30T20:33:21.557Z,19.71
2022-08-30T20:35:50.313Z,19.32
2022-08-30T20:38:24.199Z,19.14
2022-08-30T20:40:56.395Z,18.75
2022-08-30T20:43:27.776Z,18.85
2022-08-30T20:45:56.798Z,19.00
2022-08-30T20:48:29.148Z,18.62
2022-08-30T20:50:58.108Z,18.68
2022-08-30T20:53:26.374Z,18.73
2022-08-30T20:55:54.606Z,18.83
2022-08-30T20:58:23.267Z,18.87
2022-08-30T21:00:55.112Z,18.87
2022-08-30T21:03:25.910Z,18.85
2022-08-30T21:05:56.194Z,18.96
2022-08-30T21:08:25.547Z,19.02
2022-08-30T21:10:54.936Z,19.01
2022-08-30T21:13:23.346Z,19.34
2022-08-30T21:16:00.417Z,19.29
2022-08-30T21:18:33.420Z,19.47
2022-08-30T21:21:14.261Z,19.44
2022-08-30T21:23:43.392Z,19.53
2022-08-30T21:26:12.134Z,19.63
2022-08-30T21:28:40.635Z,19.69
2022-08-30T21:31:11.979Z,19.45
2022-08-30T21:33:41.450Z,19.36
2022-08-30T21:36:30.307Z,19.29
2022-08-30T21:39:00.917Z,19.55
2022-08-30T21:41:30.905Z,19.67
2022-08-30T21:44:05.739Z,19.91
2022-08-30T21:46:35.477Z,19.63
2022-08-30T21:49:07.238Z,19.57
2022-08-30T21:51:39.599Z,19.78
2022-08-30T21:54:09.983Z,19.38
2022-08-30T21:56:40.884Z,19.29
2022-08-30T21:59:10.710Z,18.98
2022-08-30T22:01:40.703Z,18.94
2022-08-30T22:04:11.126Z,18.84
2022-08-30T22:06:43.821Z,19.07
2022-08-30T22:09:16.108Z,19.26
2022-08-30T22:11:44.981Z,19.19
2022-08-30T22:14:14.811Z,19.25
2022-08-30T22:16:45.056Z,19.04
2022-08-30T22:19:13.773Z,19.35
2022-08-30T22:21:42.998Z,19.45
2022-08-30T22:24:12.345Z,18.97
2022-08-30T22:26:41.231Z,18.81
2022-08-30T22:29:09.891Z,18.66
2022-08-30T22:31:41.594Z,18.59
2022-08-30T22:34:10.781Z,18.67
2022-08-30T22:36:40.956Z,18.87
2022-08-30T22:39:12.380Z,18.52
2022-08-30T22:41:41.781Z,18.49
2022-08-30T22:44:09.709Z,18.31
2022-08-30T22:46:39.063Z,18.07
2022-08-30T22:49:09.722Z,17.91
2022-08-30T22:51:41.882Z,18.08
2022-08-30T22:57:03.634Z,18.51
2022-08-30T22:59:32.816Z,18.47
2022-08-30T23:02:01.274Z,18.30
2022-08-30T23:04:29.916Z,18.46
2022-08-30T23:06:57.914Z,18.24
2022-08-30T23:09:25.899Z,18.52
2022-08-30T23:11:54.254Z,18.24
2022-08-30T23:14:22.722Z,18.20
2022-08-30T23:16:53.414Z,17.98
2022-08-30T23:19:24.010Z,17.69
2022-08-30T23:21:51.941Z,17.79
2022-08-30T23:24:38.123Z,17.96
2022-08-30T23:27:24.900Z,18.22
2022-08-30T23:30:11.162Z,17.67
2022-08-30T23:32:57.961Z,17.77
2022-08-30T23:35:44.952Z,18.05
2022-08-30T23:38:31.927Z,17.84
2022-08-30T23:41:18.291Z,17.91
2022-08-30T23:44:05.206Z,17.75
2022-08-30T23:46:51.391Z,17.94
2022-08-30T23:49:38.232Z,18.52
2022-08-30T23:52:25.234Z,17.91
2022-08-30T23:55:12.207Z,17.33
2022-08-30T23:57:58.436Z,17.26
